Time;durP1;ratioP1;P1;durP2;ratioP2;P2;SDS_P1;SDS_P2;PMS_P1;PMS_P2;Temp;Humidity;BMP_temperature;BMP_pressure;BME280_temperature;BME280_humidity;BME280_pressure;Samples;Min_cycle;Max_cycle;Signal;HPM_P1;HPM_P2
2022/03/09 00:02:19;;;;;;;4.40;2.13;;;6.10;40.00;;;;;;4924090;28;20099;-85
2022/03/09 00:04:45;;;;;;;3.13;2.13;;;6.00;40.00;;;;;;4925365;29;20099;-88
2022/03/09 00:07:11;;;;;;;3.22;2.28;;;6.00;39.90;;;;;;4921821;28;20081;-84
2022/03/09 00:09:37;;;;;;;3.78;2.17;;;6.00;39.80;;;;;;4938708;28;20534;-86
2022/03/09 00:12:03;;;;;;;2.60;2.08;;;6.00;39.80;;;;;;4939119;28;20058;-84
2022/03/09 00:14:30;;;;;;;3.38;2.20;;;6.00;39.80;;;;;;4926348;29;20448;-85
2022/03/09 00:16:56;;;;;;;4.28;2.45;;;6.00;39.80;;;;;;4922496;28;20130;-85
2022/03/09 00:19:22;;;;;;;3.75;2.20;;;6.00;39.90;;;;;;4920527;29;20172;-84
2022/03/09 00:21:49;;;;;;;5.63;2.58;;;5.90;39.90;;;;;;4922119;28;20569;-86
2022/03/09 00:24:23;;;;;;;3.08;2.15;;;5.90;39.90;;;;;;4924241;29;20391;-81
2022/03/09 00:26:49;;;;;;;2.15;1.95;;;5.90;39.90;;;;;;4922609;29;20032;-86
2022/03/09 00:29:15;;;;;;;3.40;2.28;;;5.90;39.90;;;;;;4925527;29;20192;-86
2022/03/09 00:31:41;;;;;;;2.80;2.17;;;5.90;39.90;;;;;;4923070;28;20051;-88
2022/03/09 00:34:07;;;;;;;3.25;1.98;;;5.90;39.90;;;;;;4922511;28;20031;-86
2022/03/09 00:36:33;;;;;;;3.63;2.60;;;5.90;39.90;;;;;;4922265;28;20028;-86
2022/03/09 00:38:59;;;;;;;3.83;2.28;;;5.90;39.90;;;;;;4906879;29;20389;-86
2022/03/09 00:41:25;;;;;;;3.80;2.28;;;5.80;39.80;;;;;;4927284;28;20051;-86
2022/03/09 00:43:53;;;;;;;2.95;2.40;;;5.80;39.80;;;;;;4925584;28;20032;-86
2022/03/09 00:46:19;;;;;;;4.55;2.50;;;5.80;39.80;;;;;;4925441;28;20039;-86
2022/03/09 00:48:44;;;;;;;4.22;2.45;;;5.80;39.70;;;;;;4910519;28;20051;-85
2022/03/09 00:51:10;;;;;;;2.97;2.42;;;5.80;39.80;;;;;;4929697;29;20036;-86
2022/03/09 00:53:38;;;;;;;3.50;2.42;;;5.80;39.70;;;;;;4928212;28;20047;-83
2022/03/09 00:56:04;;;;;;;3.05;2.08;;;5.80;40.20;;;;;;4930547;29;20042;-87
2022/03/09 00:58:30;;;;;;;2.90;2.20;;;5.80;39.60;;;;;;4924438;29;20032;-83
2022/03/09 01:00:57;;;;;;;4.13;2.40;;;5.80;39.50;;;;;;4928123;28;20043;-85
2022/03/09 01:03:23;;;;;;;4.28;2.30;;;5.80;39.50;;;;;;4926997;29;20039;-85
2022/03/09 01:05:49;;;;;;;3.05;2.13;;;5.80;39.50;;;;;;4925704;28;20083;-82
2022/03/09 01:08:15;;;;;;;4.07;2.20;;;5.70;39.40;;;;;;4927111;28;20032;-83
2022/03/09 01:10:41;;;;;;;3.95;2.20;;;5.70;39.40;;;;;;4925425;28;20544;-83
2022/03/09 01:13:07;;;;;;;4.35;2.42;;;5.70;39.30;;;;;;4928802;28;20036;-84
2022/03/09 01:15:33;;;;;;;2.53;2.20;;;5.70;39.40;;;;;;4930379;28;20034;-84
2022/03/09 01:17:59;;;;;;;2.60;2.13;;;5.70;39.30;;;;;;4943497;28;20035;-81
2022/03/09 01:20:25;;;;;;;3.17;2.10;;;5.70;39.30;;;;;;4912063;29;20042;-81
2022/03/09 01:22:52;;;;;;;3.85;2.45;;;5.70;39.30;;;;;;4925601;28;20436;-84
2022/03/09 01:25:18;;;;;;;3.42;2.30;;;5.80;39.30;;;;;;4922793;29;20051;-85
2022/03/09 01:27:44;;;;;;;4.03;2.30;;;5.80;39.20;;;;;;4943269;28;20063;-84
2022/03/09 01:30:11;;;;;;;5.85;2.28;;;5.80;39.10;;;;;;4924387;29;20563;-82
2022/03/09 01:32:37;;;;;;;4.25;2.50;;;5.80;39.10;;;;;;4927927;29;20047;-84
2022/03/09 01:35:03;;;;;;;5.28;2.38;;;5.80;39.00;;;;;;4925600;28;20565;-85
2022/03/09 01:37:29;;;;;;;4.78;2.60;;;5.90;39.10;;;;;;4925009;28;20036;-83
2022/03/09 01:39:55;;;;;;;5.00;2.25;;;5.80;38.90;;;;;;4924620;28;20066;-84
2022/03/09 01:42:21;;;;;;;2.90;2.22;;;5.80;38.80;;;;;;4924359;29;20124;-83
2022/03/09 01:44:47;;;;;;;4.45;2.50;;;5.80;38.80;;;;;;4922730;29;20082;-82
2022/03/09 01:47:13;;;;;;;2.97;2.10;;;5.80;38.70;;;;;;4925367;28;20035;-82
2022/03/09 01:49:39;;;;;;;3.50;2.42;;;5.80;38.80;;;;;;4922265;29;20052;-84
2022/03/09 01:52:07;;;;;;;3.80;2.72;;;5.80;38.80;;;;;;4911046;29;20045;-83
2022/03/09 01:54:34;;;;;;;3.22;1.98;;;5.80;38.80;;;;;;4932674;28;20042;-84
2022/03/09 01:57:00;;;;;;;3.78;2.30;;;5.80;38.80;;;;;;4930099;29;20126;-83
2022/03/09 01:59:26;;;;;;;4.70;2.40;;;5.80;38.80;;;;;;4916761;29;20047;-82
2022/03/09 02:01:53;;;;;;;3.20;2.78;;;5.80;38.80;;;;;;4926860;28;20039;-83
2022/03/09 02:04:19;;;;;;;3.47;2.35;;;5.80;38.80;;;;;;4925332;29;20043;-84
2022/03/09 02:06:45;;;;;;;5.03;2.35;;;5.80;38.90;;;;;;4925505;28;20087;-83
2022/03/09 02:11:57;;;;;;;3.35;2.25;;;5.70;38.70;;;;;;4923662;29;20094;-85
2022/03/09 02:14:29;;;;;;;4.43;2.42;;;5.70;38.80;;;;;;4924616;28;20574;-84
2022/03/09 02:16:57;;;;;;;4.35;2.30;;;5.70;38.80;;;;;;4924854;28;20036;-84
2022/03/09 02:19:23;;;;;;;4.47;2.20;;;5.70;38.80;;;;;;4923488;28;20043;-84
2022/03/09 02:21:54;;;;;;;3.85;2.50;;;5.60;38.80;;;;;;4937958;28;20396;-83
2022/03/09 02:24:21;;;;;;;4.30;2.60;;;5.60;38.80;;;;;;4923758;29;20039;-85
2022/03/09 02:26:51;;;;;;;3.53;2.33;;;5.60;38.80;;;;;;4923314;29;20058;-81
2022/03/09 02:29:17;;;;;;;3.63;2.63;;;5.60;38.80;;;;;;4925284;28;20028;-85
2022/03/09 02:31:42;;;;;;;3.47;2.20;;;5.60;38.70;;;;;;4924011;28;20442;-84
2022/03/09 02:34:08;;;;;;;5.78;2.42;;;5.60;38.70;;;;;;4924704;28;20535;-82
2022/03/09 02:36:35;;;;;;;4.05;2.53;;;5.70;38.70;;;;;;4924451;28;20106;-84
2022/03/09 02:39:01;;;;;;;5.47;2.72;;;5.70;38.70;;;;;;4923470;29;20024;-85
2022/03/09 02:41:28;;;;;;;3.72;2.65;;;5.70;38.60;;;;;;4924836;29;20692;-82
2022/03/09 02:43:54;;;;;;;4.57;2.40;;;5.70;38.50;;;;;;4926087;29;20036;-85
2022/03/09 02:46:21;;;;;;;2.97;2.63;;;5.80;38.40;;;;;;4938238;28;20032;-83
2022/03/09 02:48:49;;;;;;;4.82;2.90;;;5.80;38.40;;;;;;4911010;28;21001;-83
2022/03/09 02:51:15;;;;;;;4.13;2.60;;;5.70;38.20;;;;;;4924811;29;20076;-83
2022/03/09 02:53:41;;;;;;;3.47;2.60;;;5.80;38.20;;;;;;4906182;29;20085;-84
2022/03/09 02:56:07;;;;;;;5.47;2.72;;;5.70;38.10;;;;;;4926542;29;20879;-80
2022/03/09 02:58:33;;;;;;;4.43;2.60;;;5.80;38.20;;;;;;4939478;28;20036;-83
2022/03/09 03:00:59;;;;;;;4.82;2.35;;;5.80;38.20;;;;;;4912463;29;20103;-83
2022/03/09 03:03:25;;;;;;;3.83;2.30;;;5.80;38.10;;;;;;4917813;29;20035;-83
2022/03/09 03:05:50;;;;;;;3.33;2.33;;;5.70;38.00;;;;;;4925508;28;20042;-81
2022/03/09 03:08:16;;;;;;;3.88;2.35;;;5.70;37.90;;;;;;4926943;28;20036;-85
2022/03/09 03:10:42;;;;;;;4.07;2.47;;;5.70;38.00;;;;;;4924527;28;20040;-82
2022/03/09 03:13:08;;;;;;;4.57;2.55;;;5.70;37.90;;;;;;4924103;28;20036;-84
2022/03/09 03:15:34;;;;;;;2.80;2.35;;;5.70;37.90;;;;;;4922550;28;20031;-84
2022/03/09 03:18:01;;;;;;;4.00;2.78;;;5.70;37.90;;;;;;4912012;29;20037;-80
2022/03/09 03:20:27;;;;;;;4.75;2.72;;;5.70;37.80;;;;;;4925671;28;20047;-79
2022/03/09 03:22:53;;;;;;;5.90;2.63;;;5.60;37.80;;;;;;4922640;29;20514;-84
2022/03/09 03:25:19;;;;;;;3.97;2.60;;;5.70;37.70;;;;;;4921615;29;20079;-85
2022/03/09 03:27:45;;;;;;;6.45;2.85;;;5.60;37.80;;;;;;4923798;28;20414;-85
2022/03/09 03:30:11;;;;;;;4.10;2.92;;;5.60;37.80;;;;;;4922999;29;20036;-83
2022/03/09 03:32:37;;;;;;;5.90;2.42;;;5.60;37.80;;;;;;4923018;28;20488;-84
2022/03/09 03:35:03;;;;;;;4.30;2.50;;;5.60;37.90;;;;;;4908716;29;20091;-84
2022/03/09 03:37:29;;;;;;;3.85;2.67;;;5.60;38.00;;;;;;4909590;29;20063;-83
2022/03/09 03:39:55;;;;;;;3.65;2.50;;;5.60;38.10;;;;;;4923240;28;20495;-85
2022/03/09 03:42:22;;;;;;;3.67;2.50;;;5.60;38.00;;;;;;4925935;29;20035;-84
2022/03/09 03:44:48;;;;;;;4.93;2.90;;;5.60;38.60;;;;;;4908740;29;20040;-84
2022/03/09 03:47:14;;;;;;;4.82;2.60;;;5.70;38.20;;;;;;4921521;29;20065;-85
2022/03/09 03:49:40;;;;;;;4.80;2.47;;;5.70;38.10;;;;;;4922995;29;20102;-85
2022/03/09 03:52:06;;;;;;;4.55;2.90;;;5.70;38.60;;;;;;4923784;28;20036;-89
2022/03/09 03:54:32;;;;;;;5.35;2.95;;;5.70;37.80;;;;;;4939555;29;20118;-90
2022/03/09 03:56:58;;;;;;;5.68;2.72;;;5.70;37.80;;;;;;4925469;29;20136;-94
2022/03/09 03:59:23;;;;;;;4.63;3.30;;;5.70;37.70;;;;;;4935312;29;20046;-87
2022/03/09 04:01:49;;;;;;;4.80;2.92;;;5.70;37.70;;;;;;4942802;29;20636;-88
2022/03/09 04:04:15;;;;;;;3.88;2.80;;;5.80;37.70;;;;;;4942430;28;20050;-86
2022/03/09 04:06:42;;;;;;;4.53;2.97;;;5.70;37.60;;;;;;4943561;28;20023;-84
2022/03/09 04:11:56;;;;;;;4.38;3.08;;;5.70;37.40;;;;;;4976533;23;20051;-88
2022/03/09 04:14:22;;;;;;;3.42;2.72;;;5.70;37.30;;;;;;4949997;28;20040;-91
2022/03/09 04:16:49;;;;;;;5.20;2.80;;;5.70;37.30;;;;;;4939223;29;20063;-92
2022/03/09 04:19:15;;;;;;;3.78;2.85;;;5.70;37.40;;;;;;4934914;28;20043;-92
2022/03/09 04:21:42;;;;;;;5.07;2.78;;;5.70;37.30;;;;;;4933477;28;20031;-96
2022/03/09 04:24:08;;;;;;;4.72;3.22;;;5.70;37.90;;;;;;4917389;29;20043;-85
2022/03/09 04:26:34;;;;;;;3.83;2.53;;;5.70;37.20;;;;;;4929196;28;20459;-87
2022/03/09 04:29:01;;;;;;;4.85;3.00;;;5.70;37.30;;;;;;4931240;28;20103;-85
2022/03/09 04:31:27;;;;;;;4.38;2.80;;;5.70;37.40;;;;;;4929843;28;21051;-85
2022/03/09 04:33:54;;;;;;;3.72;2.72;;;5.70;37.30;;;;;;4930024;28;20063;-88
2022/03/09 04:36:20;;;;;;;4.10;2.80;;;5.70;37.90;;;;;;4929670;29;20031;-87
2022/03/09 04:38:46;;;;;;;4.82;2.63;;;5.70;37.20;;;;;;4925518;29;20091;-85
2022/03/09 04:41:12;;;;;;;5.80;2.92;;;5.70;37.20;;;;;;4929227;28;20031;-84
2022/03/09 04:43:38;;;;;;;6.43;2.88;;;5.70;37.20;;;;;;4929906;28;20044;-86
2022/03/09 04:46:04;;;;;;;4.43;2.92;;;5.80;37.20;;;;;;4930585;28;20341;-84
2022/03/09 04:48:30;;;;;;;5.47;3.17;;;5.80;37.20;;;;;;4929243;29;20036;-90
2022/03/09 04:50:56;;;;;;;5.28;3.05;;;5.80;37.10;;;;;;4927346;28;20032;-90
2022/03/09 04:53:22;;;;;;;5.47;2.85;;;5.90;37.10;;;;;;4928899;29;20039;-88
2022/03/09 04:55:47;;;;;;;4.03;2.83;;;5.90;37.00;;;;;;4925576;29;20040;-87
2022/03/09 04:58:13;;;;;;;7.07;3.17;;;5.90;37.00;;;;;;4928583;28;20061;-87
2022/03/09 05:00:39;;;;;;;4.40;2.90;;;5.90;36.90;;;;;;4928050;28;20040;-91
2022/03/09 05:03:05;;;;;;;5.53;3.00;;;5.90;36.90;;;;;;4930293;29;20039;-84
2022/03/09 05:05:31;;;;;;;4.45;2.80;;;5.90;36.80;;;;;;4953607;28;20416;-82
2022/03/09 05:07:57;;;;;;;4.07;2.78;;;6.00;36.90;;;;;;4929269;29;20040;-81
2022/03/09 05:10:23;;;;;;;4.95;3.08;;;6.00;36.80;;;;;;4932133;28;20052;-84
2022/03/09 05:12:49;;;;;;;3.85;2.70;;;6.00;37.40;;;;;;4932824;28;20051;-81
2022/03/09 05:15:16;;;;;;;5.85;3.40;;;6.00;36.80;;;;;;4934000;29;20067;-82
2022/03/09 05:17:43;;;;;;;5.53;3.30;;;6.00;36.90;;;;;;4926838;29;20450;-81
2022/03/09 05:20:11;;;;;;;4.85;2.90;;;6.00;36.90;;;;;;4925458;29;20031;-82
2022/03/09 05:22:37;;;;;;;5.53;3.63;;;6.00;36.90;;;;;;4929884;28;20040;-85
2022/03/09 05:25:03;;;;;;;4.30;3.17;;;6.10;36.90;;;;;;4926325;29;20050;-85
2022/03/09 05:27:30;;;;;;;4.80;2.75;;;6.10;36.90;;;;;;4928940;29;20032;-83
2022/03/09 05:29:56;;;;;;;6.47;3.40;;;6.10;36.90;;;;;;4920871;29;20340;-84
2022/03/09 05:32:22;;;;;;;4.53;3.40;;;6.10;36.90;;;;;;4928273;28;20418;-80
2022/03/09 05:34:50;;;;;;;4.22;3.28;;;6.10;36.90;;;;;;4928855;28;20047;-79
2022/03/09 05:37:17;;;;;;;6.32;3.45;;;6.10;36.90;;;;;;4927307;28;20040;-79
2022/03/09 05:39:43;;;;;;;4.05;3.40;;;6.20;37.00;;;;;;4926101;28;20035;-79
2022/03/09 05:42:09;;;;;;;4.53;3.05;;;6.30;37.00;;;;;;4927917;29;20042;-80
2022/03/09 05:44:36;;;;;;;5.60;3.17;;;6.40;37.00;;;;;;4927471;28;20048;-80
2022/03/09 05:47:02;;;;;;;5.35;3.42;;;6.50;37.00;;;;;;4926242;29;20036;-80
2022/03/09 05:49:28;;;;;;;6.28;3.20;;;6.60;37.00;;;;;;4927412;28;20083;-79
2022/03/09 05:51:54;;;;;;;6.13;3.95;;;6.70;36.90;;;;;;4942894;28;20044;-80
2022/03/09 05:54:20;;;;;;;7.50;3.70;;;6.80;37.00;;;;;;4906063;29;20161;-79
2022/03/09 05:56:46;;;;;;;10.50;4.55;;;6.90;37.00;;;;;;4907985;29;20067;-83
2022/03/09 05:59:13;;;;;;;6.35;3.95;;;6.90;36.20;;;;;;4928371;28;20102;-81
2022/03/09 06:01:39;;;;;;;9.57;4.63;;;6.80;35.50;;;;;;4928951;28;20052;-82
2022/03/09 06:04:06;;;;;;;7.35;4.35;;;6.70;35.40;;;;;;4920747;28;20050;-82
2022/03/09 06:06:32;;;;;;;11.43;4.32;;;6.50;35.40;;;;;;4912756;29;20086;-83
2022/03/09 06:08:58;;;;;;;7.25;3.85;;;6.50;35.20;;;;;;4942551;28;20043;-84
2022/03/09 06:11:24;;;;;;;6.13;3.60;;;6.30;35.30;;;;;;4926663;29;20051;-83
2022/03/09 06:13:51;;;;;;;6.70;3.70;;;6.40;35.40;;;;;;4927406;29;20106;-83
2022/03/09 06:16:17;;;;;;;7.68;3.58;;;6.30;35.10;;;;;;4929669;29;20040;-83
2022/03/09 06:18:46;;;;;;;10.05;4.10;;;6.40;35.00;;;;;;4912082;28;20122;-84
2022/03/09 06:21:15;;;;;;;6.25;4.07;;;6.40;34.90;;;;;;4911212;29;20038;-86
2022/03/09 06:23:41;;;;;;;7.28;3.92;;;6.50;34.70;;;;;;4925430;29;20052;-84
2022/03/09 06:26:07;;;;;;;5.97;3.97;;;6.50;34.20;;;;;;4927413;28;20820;-87
2022/03/09 06:28:34;;;;;;;8.40;3.85;;;6.60;34.10;;;;;;4926808;29;20042;-85
2022/03/09 06:30:59;;;;;;;6.47;3.80;;;6.70;34.00;;;;;;4927645;28;20087;-85
2022/03/09 06:33:26;;;;;;;6.22;4.07;;;6.80;34.10;;;;;;4908458;29;20027;-85
2022/03/09 06:35:52;;;;;;;6.50;3.85;;;6.90;34.60;;;;;;4913638;29;20040;-82
2022/03/09 06:38:18;;;;;;;5.55;3.47;;;7.10;37.00;;;;;;4927475;28;20059;-87
2022/03/09 06:40:44;;;;;;;6.72;3.60;;;7.40;38.80;;;;;;4912187;29;20032;-88
2022/03/09 06:43:10;;;;;;;7.70;3.78;;;7.70;38.80;;;;;;4924857;29;20046;-87
2022/03/09 06:45:36;;;;;;;4.72;3.25;;;8.00;38.60;;;;;;4925045;28;20590;-87
2022/03/09 06:48:04;;;;;;;10.00;3.90;;;8.30;38.50;;;;;;4925994;29;20491;-86
2022/03/09 06:50:31;;;;;;;6.43;3.45;;;8.50;38.50;;;;;;4917970;29;20078;-86
2022/03/09 06:52:57;;;;;;;6.60;3.38;;;8.70;38.50;;;;;;4925461;29;20039;-86
2022/03/09 06:55:23;;;;;;;4.70;3.22;;;8.90;38.50;;;;;;4892617;29;20031;-85
2022/03/09 06:57:49;;;;;;;5.85;3.40;;;9.10;38.50;;;;;;4908391;28;20031;-85
2022/03/09 07:00:15;;;;;;;5.82;3.30;;;9.20;38.40;;;;;;4924060;29;20079;-85
2022/03/09 07:02:42;;;;;;;6.45;3.35;;;9.40;38.50;;;;;;4926091;29;20042;-84
2022/03/09 07:05:10;;;;;;;5.35;3.20;;;9.60;38.50;;;;;;4913300;29;20047;-86
2022/03/09 07:07:37;;;;;;;4.90;2.90;;;9.70;38.40;;;;;;4906653;29;20035;-84
2022/03/09 07:10:03;;;;;;;5.85;3.00;;;9.80;38.30;;;;;;4926503;28;20054;-87
2022/03/09 07:12:30;;;;;;;3.75;2.83;;;10.00;38.40;;;;;;4922598;29;20074;-82
2022/03/09 07:14:56;;;;;;;6.50;3.58;;;10.10;38.30;;;;;;4931716;29;20055;-84
2022/03/09 07:17:22;;;;;;;4.55;2.95;;;10.20;38.20;;;;;;4928178;29;20126;-86
2022/03/09 07:19:48;;;;;;;4.25;2.83;;;10.30;38.20;;;;;;4928226;29;20062;-84
2022/03/09 07:22:14;;;;;;;4.68;2.78;;;10.40;38.20;;;;;;4934954;28;20054;-87
2022/03/09 07:24:40;;;;;;;5.85;2.92;;;10.50;38.10;;;;;;4921527;28;20039;-81
2022/03/09 07:27:07;;;;;;;5.03;3.20;;;10.60;38.20;;;;;;4922952;29;20038;-88
2022/03/09 07:29:32;;;;;;;4.88;3.10;;;10.70;38.10;;;;;;4926054;29;20032;-87
2022/03/09 07:31:58;;;;;;;6.18;3.33;;;10.80;38.10;;;;;;4926348;28;20072;-86
2022/03/09 07:34:26;;;;;;;4.78;2.92;;;10.90;38.10;;;;;;4908654;29;20086;-86
2022/03/09 07:36:58;;;;;;;3.88;2.60;;;10.90;38.00;;;;;;4923768;28;20087;-87
2022/03/09 07:39:29;;;;;;;5.30;2.92;;;11.00;38.00;;;;;;4926524;29;20032;-86
2022/03/09 07:41:56;;;;;;;5.60;3.22;;;11.00;38.00;;;;;;4909034;29;20418;-87
2022/03/09 07:44:24;;;;;;;6.85;3.33;;;11.00;38.00;;;;;;4924269;29;20577;-87
2022/03/09 07:46:51;;;;;;;4.35;2.92;;;11.10;38.70;;;;;;4925606;29;20035;-87
2022/03/09 07:49:18;;;;;;;4.68;2.90;;;11.10;38.00;;;;;;4928233;29;20318;-88
2022/03/09 07:51:45;;;;;;;4.55;2.67;;;11.10;38.00;;;;;;4927167;28;20063;-87
2022/03/09 07:54:11;;;;;;;5.20;2.92;;;11.20;38.10;;;;;;4912350;29;20042;-85
2022/03/09 07:56:38;;;;;;;4.25;3.00;;;11.20;38.10;;;;;;4945047;28;20062;-88
2022/03/09 07:59:06;;;;;;;7.43;3.13;;;11.20;38.10;;;;;;4913943;29;20521;-88
2022/03/09 08:01:32;;;;;;;5.20;2.88;;;11.20;38.00;;;;;;4927067;29;20504;-85
2022/03/09 08:03:57;;;;;;;4.57;2.83;;;11.20;38.10;;;;;;4911462;29;20798;-86
2022/03/09 08:06:23;;;;;;;4.63;3.05;;;11.20;38.10;;;;;;4913373;29;20111;-85
2022/03/09 08:08:49;;;;;;;3.17;2.35;;;11.20;38.10;;;;;;4929149;29;20063;-87
2022/03/09 08:11:15;;;;;;;7.10;3.40;;;11.20;38.30;;;;;;4926612;29;20050;-86
2022/03/09 08:13:41;;;;;;;3.65;2.83;;;11.20;38.30;;;;;;4929080;29;20031;-89
2022/03/09 08:16:07;;;;;;;4.32;2.50;;;11.20;38.40;;;;;;4927898;29;20039;-85
2022/03/09 08:18:34;;;;;;;3.58;2.55;;;11.20;38.40;;;;;;4928146;29;20091;-85
2022/03/09 08:21:00;;;;;;;4.13;2.63;;;11.20;38.50;;;;;;4930570;29;20032;-86
2022/03/09 08:23:26;;;;;;;5.03;2.95;;;11.20;38.50;;;;;;4946970;28;20088;-86
2022/03/09 08:25:52;;;;;;;3.67;2.40;;;11.20;38.60;;;;;;4928456;29;20116;-82
2022/03/09 08:28:18;;;;;;;3.90;2.40;;;11.20;38.70;;;;;;4931631;28;20039;-86
2022/03/09 08:30:44;;;;;;;3.83;2.58;;;11.20;38.70;;;;;;4913200;28;20067;-83
2022/03/09 08:33:11;;;;;;;3.35;2.75;;;11.10;38.70;;;;;;4928278;29;20031;-86
2022/03/09 08:35:37;;;;;;;3.17;2.55;;;11.10;38.80;;;;;;4929021;28;20044;-84
2022/03/09 08:38:04;;;;;;;5.07;2.50;;;11.10;38.80;;;;;;4929649;29;20042;-83
2022/03/09 08:40:30;;;;;;;4.65;2.30;;;11.10;38.60;;;;;;4930610;28;20541;-85
2022/03/09 08:42:56;;;;;;;3.50;2.38;;;11.10;38.50;;;;;;4934203;28;20537;-85
2022/03/09 08:45:22;;;;;;;4.63;2.60;;;11.00;38.20;;;;;;4933611;29;20134;-87
2022/03/09 08:47:48;;;;;;;3.30;2.40;;;11.00;38.20;;;;;;4934535;28;20419;-85
2022/03/09 08:50:15;;;;;;;3.08;2.40;;;11.00;38.10;;;;;;4933432;28;20036;-86
2022/03/09 08:52:41;;;;;;;3.47;2.35;;;11.00;37.90;;;;;;4934462;28;20467;-84
2022/03/09 08:55:07;;;;;;;3.97;2.40;;;11.00;37.80;;;;;;4934658;28;20036;-86
2022/03/09 08:57:33;;;;;;;4.28;2.78;;;10.90;37.70;;;;;;4934689;29;20028;-85
2022/03/09 09:00:03;;;;;;;6.38;2.88;;;10.90;37.70;;;;;;4931759;29;20098;-86
2022/03/09 09:02:30;;;;;;;4.18;2.50;;;10.90;37.60;;;;;;4931069;29;20115;-87
2022/03/09 09:04:57;;;;;;;3.60;2.63;;;10.90;37.50;;;;;;4930234;28;20075;-88
2022/03/09 09:07:23;;;;;;;4.10;2.42;;;10.90;37.30;;;;;;4936571;28;20031;-89
2022/03/09 09:09:49;;;;;;;3.75;2.38;;;10.90;37.30;;;;;;4933572;28;20043;-86
2022/03/09 09:12:15;;;;;;;3.85;2.10;;;10.80;37.30;;;;;;4926188;29;20122;-89
2022/03/09 09:14:41;;;;;;;4.60;2.58;;;10.80;37.00;;;;;;4939146;28;20036;-88
2022/03/09 09:17:07;;;;;;;2.65;2.30;;;10.80;36.80;;;;;;4939961;28;20064;-88
2022/03/09 09:19:34;;;;;;;3.75;2.35;;;10.80;36.40;;;;;;4928229;29;20058;-89
2022/03/09 09:22:01;;;;;;;2.90;2.10;;;10.70;36.40;;;;;;4931675;28;20036;-90
2022/03/09 09:24:27;;;;;;;2.65;2.20;;;10.70;36.00;;;;;;4950454;29;20043;-87
2022/03/09 09:26:53;;;;;;;3.72;2.63;;;10.70;35.50;;;;;;4941312;28;20040;-84
2022/03/09 09:29:19;;;;;;;3.58;2.38;;;10.60;35.10;;;;;;4938265;28;20126;-86
2022/03/09 09:31:47;;;;;;;4.05;2.42;;;10.60;34.90;;;;;;4938177;28;20040;-88
2022/03/09 09:34:14;;;;;;;4.40;2.15;;;10.60;37.50;;;;;;4929085;29;20118;-86
2022/03/09 09:36:42;;;;;;;4.82;2.20;;;10.60;40.40;;;;;;4932945;28;20166;-89
2022/03/09 09:39:08;;;;;;;5.15;2.40;;;10.70;41.30;;;;;;4933404;29;20024;-83
2022/03/09 09:41:36;;;;;;;4.35;2.45;;;10.60;40.60;;;;;;4928503;28;20384;-85
2022/03/09 09:44:03;;;;;;;3.38;2.20;;;10.60;40.50;;;;;;4928883;28;20055;-87
2022/03/09 09:46:29;;;;;;;2.90;2.08;;;10.60;39.30;;;;;;4929307;28;20046;-84
2022/03/09 09:48:56;;;;;;;6.38;2.35;;;10.60;38.30;;;;;;4908363;28;20035;-83
2022/03/09 09:51:26;;;;;;;3.40;2.15;;;10.50;37.50;;;;;;4943333;29;20114;-87
2022/03/09 09:53:51;;;;;;;3.15;2.03;;;10.50;36.80;;;;;;4925182;29;20035;-86
2022/03/09 09:56:18;;;;;;;3.75;2.15;;;10.50;36.50;;;;;;4926954;28;20106;-87
2022/03/09 09:58:45;;;;;;;5.88;2.03;;;10.50;36.10;;;;;;4927135;29;20035;-87
2022/03/09 10:01:11;;;;;;;2.72;2.10;;;10.40;35.70;;;;;;4925594;29;20346;-86
2022/03/09 10:03:37;;;;;;;4.15;2.28;;;10.40;35.40;;;;;;4925468;28;20035;-85
2022/03/09 10:06:04;;;;;;;2.20;2.00;;;10.30;35.10;;;;;;4928341;29;20038;-86
2022/03/09 10:08:30;;;;;;;3.42;2.10;;;10.30;34.90;;;;;;4925654;29;20079;-86
2022/03/09 10:11:01;;;;;;;3.72;2.10;;;10.20;34.80;;;;;;4925709;28;20071;-85
2022/03/09 10:13:32;;;;;;;2.97;1.88;;;10.20;34.50;;;;;;4926690;29;20046;-86
2022/03/09 10:16:15;;;;;;;3.38;2.05;;;10.10;34.30;;;;;;4928372;28;20035;-87
2022/03/09 10:18:48;;;;;;;3.33;1.98;;;10.10;34.00;;;;;;4923322;28;20035;-85
2022/03/09 10:21:20;;;;;;;3.45;2.20;;;10.00;33.90;;;;;;4927077;29;20038;-85
2022/03/09 10:24:05;;;;;;;2.92;1.90;;;10.00;33.80;;;;;;4926143;28;20047;-87
2022/03/09 10:26:34;;;;;;;2.17;1.98;;;10.00;33.80;;;;;;4943969;28;20039;-84
2022/03/09 10:29:06;;;;;;;3.90;2.05;;;9.90;33.70;;;;;;4925230;29;20035;-85
2022/03/09 10:31:46;;;;;;;3.17;2.03;;;9.90;33.70;;;;;;4929100;28;20031;-85
2022/03/09 10:34:24;;;;;;;3.28;2.08;;;9.80;33.70;;;;;;4930202;28;21502;-86
2022/03/09 10:36:57;;;;;;;3.72;2.22;;;9.80;33.70;;;;;;4906052;28;20119;-85
2022/03/09 10:39:29;;;;;;;4.80;2.22;;;9.70;33.70;;;;;;4912400;29;20039;-86
2022/03/09 10:41:58;;;;;;;2.63;1.92;;;9.70;33.80;;;;;;4926181;28;20039;-84
2022/03/09 10:44:48;;;;;;;2.80;2.05;;;9.70;33.80;;;;;;4924465;29;20035;-86
2022/03/09 10:47:34;;;;;;;3.03;1.92;;;9.70;33.70;;;;;;4924793;29;20039;-85
2022/03/09 10:50:30;;;;;;;3.50;2.53;;;9.60;33.80;;;;;;4924536;28;20028;-85
2022/03/09 10:53:01;;;;;;;2.65;1.83;;;9.50;33.80;;;;;;4911405;29;20099;-84
2022/03/09 10:55:33;;;;;;;3.25;2.10;;;9.50;33.80;;;;;;4925236;28;20027;-84
2022/03/09 10:58:14;;;;;;;3.42;2.50;;;9.50;33.80;;;;;;4928475;29;20059;-88
2022/03/09 11:00:45;;;;;;;4.22;2.30;;;9.50;33.70;;;;;;4907856;28;20380;-92
2022/03/09 11:03:16;;;;;;;2.30;2.10;;;9.50;33.80;;;;;;4942209;28;20031;-86
2022/03/09 11:05:56;;;;;;;2.78;1.90;;;9.40;33.90;;;;;;4921277;29;20058;-88
2022/03/09 11:08:26;;;;;;;3.15;2.30;;;9.40;33.90;;;;;;4942081;28;20042;-93
2022/03/09 11:10:54;;;;;;;3.45;2.22;;;9.40;33.90;;;;;;4925773;29;20142;-96
2022/03/09 11:13:22;;;;;;;4.38;1.98;;;9.40;33.80;;;;;;4928786;29;20039;-82
2022/03/09 11:15:48;;;;;;;3.00;2.20;;;9.30;33.70;;;;;;4926562;28;20119;-90
2022/03/09 11:18:19;;;;;;;3.53;2.25;;;9.30;33.80;;;;;;4897356;29;20602;-94
2022/03/09 11:20:52;;;;;;;3.80;2.33;;;9.30;33.70;;;;;;4935448;29;20063;-94
2022/03/09 11:23:20;;;;;;;2.45;2.10;;;9.20;33.70;;;;;;4908996;29;20036;-95
2022/03/09 11:25:49;;;;;;;4.70;1.85;;;9.20;33.80;;;;;;4905069;29;20609;-94
2022/03/09 11:28:35;;;;;;;6.75;2.25;;;9.20;33.80;;;;;;4922695;29;20157;-96
2022/03/09 11:31:08;;;;;;;3.70;2.13;;;9.20;33.80;;;;;;4942391;28;20043;-94
2022/03/09 11:33:41;;;;;;;3.35;2.13;;;9.20;33.90;;;;;;4910869;28;20058;-94
2022/03/09 11:36:30;;;;;;;3.55;2.45;;;9.10;33.90;;;;;;4925729;29;20028;-94
2022/03/09 11:39:07;;;;;;;2.95;2.20;;;9.10;34.00;;;;;;4926330;29;20036;-93
2022/03/09 11:41:38;;;;;;;3.97;2.10;;;9.10;34.10;;;;;;4923982;29;20042;-92
2022/03/09 11:44:19;;;;;;;2.53;2.05;;;9.10;34.10;;;;;;4937081;29;20082;-91
2022/03/09 11:47:15;;;;;;;3.03;1.98;;;9.10;34.00;;;;;;4927879;29;20130;-90
2022/03/09 11:49:50;;;;;;;3.53;2.35;;;9.00;34.00;;;;;;4894815;29;20136;-92
2022/03/09 11:52:24;;;;;;;4.07;2.17;;;9.00;34.10;;;;;;4909182;29;20036;-89
2022/03/09 11:54:55;;;;;;;3.80;1.90;;;9.00;34.20;;;;;;4929615;28;20224;-89
2022/03/09 11:57:24;;;;;;;2.72;1.77;;;9.00;34.20;;;;;;4891977;29;20135;-88
2022/03/09 12:00:12;;;;;;;3.22;2.22;;;9.00;34.20;;;;;;4908578;29;20039;-90
2022/03/09 12:02:40;;;;;;;2.35;1.85;;;9.00;34.30;;;;;;4926850;29;20050;-90
2022/03/09 12:05:08;;;;;;;3.85;2.25;;;9.00;34.30;;;;;;4911168;29;20079;-90
2022/03/09 12:07:35;;;;;;;3.85;2.00;;;9.00;34.10;;;;;;4910522;29;20092;-88
2022/03/09 12:10:05;;;;;;;3.38;1.88;;;9.00;33.90;;;;;;4926051;29;20143;-90
2022/03/09 12:12:33;;;;;;;3.65;1.77;;;8.90;33.90;;;;;;4911014;29;20043;-91
2022/03/09 12:15:05;;;;;;;3.45;2.40;;;8.90;33.80;;;;;;4914370;29;20055;-90
2022/03/09 12:17:42;;;;;;;2.05;1.73;;;8.80;34.00;;;;;;4927105;28;20134;-89
2022/03/09 12:20:17;;;;;;;3.03;2.08;;;8.90;34.40;;;;;;4927988;28;20036;-89
2022/03/09 12:22:59;;;;;;;;;;;8.80;34.50;;;;;;4927493;28;20027;-91
2022/03/09 12:25:47;;;;;;;3.75;1.90;;;8.90;34.70;;;;;;4919914;29;19922;-88
2022/03/09 12:28:23;;;;;;;3.13;2.15;;;8.80;34.80;;;;;;4920492;29;20043;-89
2022/03/09 12:30:57;;;;;;;2.25;1.92;;;8.80;34.90;;;;;;4920924;28;20035;-88
2022/03/09 12:33:30;;;;;;;4.55;2.30;;;8.80;34.60;;;;;;4928333;29;20052;-90
2022/03/09 12:36:08;;;;;;;3.88;2.33;;;8.80;34.50;;;;;;4934483;29;20039;-89
2022/03/09 12:38:45;;;;;;;3.63;2.05;;;8.70;34.30;;;;;;4940721;29;20039;-89
2022/03/09 12:41:25;;;;;;;2.55;1.95;;;8.70;34.40;;;;;;4941768;29;20115;-88
2022/03/09 12:43:57;;;;;;;3.65;2.03;;;8.70;34.50;;;;;;4928389;29;20427;-90
2022/03/09 12:46:24;;;;;;;2.80;1.77;;;8.70;34.60;;;;;;4930294;28;20036;-90
2022/03/09 12:48:49;;;;;;;2.90;2.08;;;8.70;34.60;;;;;;4900911;28;20066;-87
2022/03/09 12:51:16;;;;;;;2.78;1.80;;;8.70;34.60;;;;;;4930392;29;20406;-89
2022/03/09 12:53:42;;;;;;;2.17;1.88;;;8.60;34.40;;;;;;4913437;29;20036;-88
2022/03/09 12:56:16;;;;;;;4.60;1.75;;;8.70;34.30;;;;;;4927458;29;20043;-87
2022/03/09 12:58:43;;;;;;;3.92;2.00;;;8.60;34.40;;;;;;4943425;29;20043;-88
2022/03/09 13:01:09;;;;;;;3.15;2.08;;;8.60;34.60;;;;;;4904685;29;20043;-89
2022/03/09 13:03:36;;;;;;;2.40;1.90;;;8.60;34.60;;;;;;4929522;28;20028;-88
2022/03/09 13:06:06;;;;;;;3.50;2.20;;;8.60;34.70;;;;;;4928238;29;20063;-90